sensor_id;sensor_type;location;lat;lon;timestamp;P1;durP1;ratioP1;P2;durP2;ratioP2
68140;SDS011;54941;52.220;104.306;2023-08-08T00:01:37;6.43;;;4.50;;
68140;SDS011;54941;52.220;104.306;2023-08-08T00:04:03;7.15;;;4.40;;
68140;SDS011;54941;52.220;104.306;2023-08-08T00:06:29;5.80;;;4.10;;
68140;SDS011;54941;52.220;104.306;2023-08-08T00:08:57;6.28;;;4.20;;
68140;SDS011;54941;52.220;104.306;2023-08-08T00:11:23;6.05;;;4.28;;
68140;SDS011;54941;52.220;104.306;2023-08-08T00:13:50;7.22;;;4.22;;
68140;SDS011;54941;52.220;104.306;2023-08-08T00:16:16;6.63;;;4.68;;
68140;SDS011;54941;52.220;104.306;2023-08-08T00:18:42;5.88;;;3.97;;
68140;SDS011;54941;52.220;104.306;2023-08-08T00:21:09;6.60;;;3.97;;
68140;SDS011;54941;52.220;104.306;2023-08-08T00:23:35;5.72;;;4.20;;
68140;SDS011;54941;52.220;104.306;2023-08-08T00:26:03;5.90;;;3.80;;
68140;SDS011;54941;52.220;104.306;2023-08-08T00:28:29;5.10;;;3.90;;
68140;SDS011;54941;52.220;104.306;2023-08-08T00:30:55;5.60;;;4.35;;
68140;SDS011;54941;52.220;104.306;2023-08-08T00:33:21;9.88;;;4.65;;
68140;SDS011;54941;52.220;104.306;2023-08-08T00:38:16;6.10;;;4.47;;
68140;SDS011;54941;52.220;104.306;2023-08-08T00:40:42;5.88;;;4.72;;
68140;SDS011;54941;52.220;104.306;2023-08-08T00:43:12;5.47;;;4.13;;
68140;SDS011;54941;52.220;104.306;2023-08-08T00:45:39;7.72;;;4.78;;
68140;SDS011;54941;52.220;104.306;2023-08-08T00:48:08;5.72;;;4.30;;
68140;SDS011;54941;52.220;104.306;2023-08-08T00:50:35;5.53;;;4.30;;
68140;SDS011;54941;52.220;104.306;2023-08-08T00:53:02;5.50;;;4.30;;
68140;SDS011;54941;52.220;104.306;2023-08-08T00:55:29;5.90;;;4.32;;
68140;SDS011;54941;52.220;104.306;2023-08-08T00:57:56;7.00;;;4.70;;
68140;SDS011;54941;52.220;104.306;2023-08-08T01:00:24;9.23;;;4.82;;
68140;SDS011;54941;52.220;104.306;2023-08-08T01:02:50;6.30;;;5.28;;
68140;SDS011;54941;52.220;104.306;2023-08-08T01:05:17;6.55;;;4.85;;
68140;SDS011;54941;52.220;104.306;2023-08-08T01:07:44;6.50;;;5.13;;
68140;SDS011;54941;52.220;104.306;2023-08-08T01:10:18;7.32;;;5.30;;
68140;SDS011;54941;52.220;104.306;2023-08-08T01:12:48;8.05;;;5.22;;
68140;SDS011;54941;52.220;104.306;2023-08-08T01:15:17;7.60;;;5.45;;
68140;SDS011;54941;52.220;104.306;2023-08-08T01:17:46;8.25;;;5.10;;
68140;SDS011;54941;52.220;104.306;2023-08-08T01:20:13;6.47;;;4.80;;
68140;SDS011;54941;52.220;104.306;2023-08-08T01:22:42;6.78;;;4.95;;
68140;SDS011;54941;52.220;104.306;2023-08-08T01:27:48;6.85;;;4.80;;
68140;SDS011;54941;52.220;104.306;2023-08-08T01:30:14;7.70;;;5.03;;
68140;SDS011;54941;52.220;104.306;2023-08-08T01:32:41;7.93;;;5.60;;
68140;SDS011;54941;52.220;104.306;2023-08-08T01:35:07;7.63;;;5.18;;
68140;SDS011;54941;52.220;104.306;2023-08-08T01:37:35;6.30;;;5.30;;
68140;SDS011;54941;52.220;104.306;2023-08-08T01:40:05;8.55;;;5.22;;
68140;SDS011;54941;52.220;104.306;2023-08-08T01:42:34;6.60;;;5.15;;
68140;SDS011;54941;52.220;104.306;2023-08-08T01:45:01;7.30;;;5.30;;
68140;SDS011;54941;52.220;104.306;2023-08-08T01:47:32;7.72;;;5.30;;
68140;SDS011;54941;52.220;104.306;2023-08-08T01:49:58;7.05;;;5.35;;
68140;SDS011;54941;52.220;104.306;2023-08-08T01:52:24;6.65;;;5.18;;
68140;SDS011;54941;52.220;104.306;2023-08-08T01:54:50;6.50;;;5.68;;
68140;SDS011;54941;52.220;104.306;2023-08-08T01:57:17;6.65;;;5.20;;
68140;SDS011;54941;52.220;104.306;2023-08-08T01:59:45;11.00;;;5.57;;
68140;SDS011;54941;52.220;104.306;2023-08-08T02:02:11;6.85;;;5.90;;
68140;SDS011;54941;52.220;104.306;2023-08-08T02:04:37;6.72;;;5.57;;
68140;SDS011;54941;52.220;104.306;2023-08-08T02:07:03;8.00;;;5.88;;
68140;SDS011;54941;52.220;104.306;2023-08-08T02:09:30;7.40;;;5.40;;
68140;SDS011;54941;52.220;104.306;2023-08-08T02:11:56;8.40;;;5.93;;
68140;SDS011;54941;52.220;104.306;2023-08-08T02:14:22;6.88;;;4.88;;
68140;SDS011;54941;52.220;104.306;2023-08-08T02:16:50;6.95;;;5.43;;
68140;SDS011;54941;52.220;104.306;2023-08-08T02:19:17;7.20;;;5.70;;
68140;SDS011;54941;52.220;104.306;2023-08-08T02:21:44;6.15;;;5.55;;
68140;SDS011;54941;52.220;104.306;2023-08-08T02:24:10;6.40;;;5.55;;
68140;SDS011;54941;52.220;104.306;2023-08-08T02:26:36;6.97;;;5.60;;
68140;SDS011;54941;52.220;104.306;2023-08-08T02:29:03;7.20;;;5.55;;
68140;SDS011;54941;52.220;104.306;2023-08-08T02:31:29;7.50;;;5.28;;
68140;SDS011;54941;52.220;104.306;2023-08-08T02:33:56;6.18;;;5.30;;
68140;SDS011;54941;52.220;104.306;2023-08-08T02:36:23;6.45;;;5.20;;
68140;SDS011;54941;52.220;104.306;2023-08-08T02:38:49;6.68;;;5.30;;
68140;SDS011;54941;52.220;104.306;2023-08-08T02:41:15;8.80;;;6.10;;
68140;SDS011;54941;52.220;104.306;2023-08-08T02:43:41;7.50;;;5.47;;
68140;SDS011;54941;52.220;104.306;2023-08-08T02:46:08;6.65;;;5.15;;
68140;SDS011;54941;52.220;104.306;2023-08-08T02:48:34;6.97;;;5.53;;
68140;SDS011;54941;52.220;104.306;2023-08-08T02:51:02;6.38;;;5.55;;
68140;SDS011;54941;52.220;104.306;2023-08-08T02:53:28;7.75;;;5.72;;
68140;SDS011;54941;52.220;104.306;2023-08-08T02:55:56;6.88;;;5.85;;
68140;SDS011;54941;52.220;104.306;2023-08-08T02:58:22;6.45;;;5.78;;
68140;SDS011;54941;52.220;104.306;2023-08-08T03:00:48;7.82;;;6.47;;
68140;SDS011;54941;52.220;104.306;2023-08-08T03:03:15;7.88;;;6.00;;
68140;SDS011;54941;52.220;104.306;2023-08-08T03:05:41;6.40;;;5.65;;
68140;SDS011;54941;52.220;104.306;2023-08-08T03:08:10;7.85;;;5.68;;
68140;SDS011;54941;52.220;104.306;2023-08-08T03:10:38;7.38;;;5.53;;
68140;SDS011;54941;52.220;104.306;2023-08-08T03:13:04;8.73;;;5.78;;
68140;SDS011;54941;52.220;104.306;2023-08-08T03:15:30;8.63;;;6.40;;
68140;SDS011;54941;52.220;104.306;2023-08-08T03:17:57;7.68;;;5.53;;
68140;SDS011;54941;52.220;104.306;2023-08-08T03:20:23;7.53;;;6.20;;
68140;SDS011;54941;52.220;104.306;2023-08-08T03:22:49;9.48;;;6.40;;
68140;SDS011;54941;52.220;104.306;2023-08-08T03:25:17;7.25;;;5.63;;
68140;SDS011;54941;52.220;104.306;2023-08-08T03:27:45;7.00;;;5.30;;
68140;SDS011;54941;52.220;104.306;2023-08-08T03:30:11;7.43;;;5.50;;
68140;SDS011;54941;52.220;104.306;2023-08-08T03:32:38;7.35;;;5.47;;
68140;SDS011;54941;52.220;104.306;2023-08-08T03:35:05;7.30;;;5.72;;
68140;SDS011;54941;52.220;104.306;2023-08-08T03:37:34;7.63;;;6.45;;
68140;SDS011;54941;52.220;104.306;2023-08-08T03:40:01;6.25;;;5.53;;
68140;SDS011;54941;52.220;104.306;2023-08-08T03:42:29;7.50;;;6.18;;
68140;SDS011;54941;52.220;104.306;2023-08-08T03:44:58;6.45;;;5.47;;
68140;SDS011;54941;52.220;104.306;2023-08-08T03:47:31;7.50;;;6.13;;
68140;SDS011;54941;52.220;104.306;2023-08-08T03:49:58;7.95;;;6.20;;
68140;SDS011;54941;52.220;104.306;2023-08-08T03:52:25;8.63;;;6.07;;
68140;SDS011;54941;52.220;104.306;2023-08-08T03:54:51;10.25;;;6.18;;
68140;SDS011;54941;52.220;104.306;2023-08-08T03:57:17;6.60;;;5.18;;
68140;SDS011;54941;52.220;104.306;2023-08-08T03:59:48;7.68;;;5.75;;
68140;SDS011;54941;52.220;104.306;2023-08-08T04:02:14;7.07;;;6.05;;
68140;SDS011;54941;52.220;104.306;2023-08-08T04:04:41;9.85;;;6.43;;
68140;SDS011;54941;52.220;104.306;2023-08-08T04:07:07;8.38;;;5.63;;
68140;SDS011;54941;52.220;104.306;2023-08-08T04:09:33;7.55;;;6.30;;
68140;SDS011;54941;52.220;104.306;2023-08-08T04:12:02;7.90;;;5.85;;
68140;SDS011;54941;52.220;104.306;2023-08-08T04:14:29;7.97;;;6.20;;
68140;SDS011;54941;52.220;104.306;2023-08-08T04:16:57;7.28;;;5.53;;
68140;SDS011;54941;52.220;104.306;2023-08-08T04:19:23;9.55;;;6.50;;
68140;SDS011;54941;52.220;104.306;2023-08-08T04:21:49;7.65;;;5.68;;
68140;SDS011;54941;52.220;104.306;2023-08-08T04:24:15;6.65;;;5.70;;
68140;SDS011;54941;52.220;104.306;2023-08-08T04:26:42;7.50;;;6.03;;
68140;SDS011;54941;52.220;104.306;2023-08-08T04:29:08;6.72;;;5.55;;
68140;SDS011;54941;52.220;104.306;2023-08-08T04:31:34;7.88;;;6.18;;
68140;SDS011;54941;52.220;104.306;2023-08-08T04:34:05;9.35;;;6.78;;
68140;SDS011;54941;52.220;104.306;2023-08-08T04:36:31;9.20;;;7.10;;
68140;SDS011;54941;52.220;104.306;2023-08-08T04:38:58;9.77;;;7.13;;
68140;SDS011;54941;52.220;104.306;2023-08-08T04:41:24;8.80;;;6.43;;
68140;SDS011;54941;52.220;104.306;2023-08-08T04:43:50;9.07;;;7.40;;
68140;SDS011;54941;52.220;104.306;2023-08-08T04:46:17;11.13;;;7.63;;
68140;SDS011;54941;52.220;104.306;2023-08-08T04:48:43;7.80;;;5.60;;
68140;SDS011;54941;52.220;104.306;2023-08-08T04:51:11;7.60;;;5.55;;
68140;SDS011;54941;52.220;104.306;2023-08-08T04:53:37;9.05;;;6.55;;
68140;SDS011;54941;52.220;104.306;2023-08-08T04:56:06;7.22;;;6.03;;
68140;SDS011;54941;52.220;104.306;2023-08-08T04:58:33;6.93;;;5.70;;
68140;SDS011;54941;52.220;104.306;2023-08-08T05:00:59;6.22;;;5.05;;
68140;SDS011;54941;52.220;104.306;2023-08-08T05:03:25;7.53;;;5.70;;
68140;SDS011;54941;52.220;104.306;2023-08-08T05:05:52;7.65;;;5.20;;
68140;SDS011;54941;52.220;104.306;2023-08-08T05:08:19;7.75;;;5.60;;
68140;SDS011;54941;52.220;104.306;2023-08-08T05:10:46;6.43;;;5.25;;
68140;SDS011;54941;52.220;104.306;2023-08-08T05:13:12;8.20;;;5.03;;
68140;SDS011;54941;52.220;104.306;2023-08-08T05:15:38;7.22;;;5.50;;
68140;SDS011;54941;52.220;104.306;2023-08-08T05:18:05;6.82;;;5.18;;
68140;SDS011;54941;52.220;104.306;2023-08-08T05:20:34;8.52;;;5.07;;
68140;SDS011;54941;52.220;104.306;2023-08-08T05:23:00;7.55;;;5.28;;
68140;SDS011;54941;52.220;104.306;2023-08-08T05:25:28;7.65;;;4.53;;
68140;SDS011;54941;52.220;104.306;2023-08-08T05:27:54;6.55;;;4.93;;
68140;SDS011;54941;52.220;104.306;2023-08-08T05:30:21;7.15;;;5.63;;
68140;SDS011;54941;52.220;104.306;2023-08-08T05:32:47;6.28;;;4.95;;
68140;SDS011;54941;52.220;104.306;2023-08-08T05:35:14;8.07;;;5.65;;
68140;SDS011;54941;52.220;104.306;2023-08-08T05:37:40;7.07;;;5.57;;
68140;SDS011;54941;52.220;104.306;2023-08-08T05:40:07;8.23;;;5.32;;
68140;SDS011;54941;52.220;104.306;2023-08-08T05:42:35;6.97;;;4.55;;
68140;SDS011;54941;52.220;104.306;2023-08-08T05:45:01;6.45;;;5.10;;
68140;SDS011;54941;52.220;104.306;2023-08-08T05:47:32;7.60;;;5.13;;
68140;SDS011;54941;52.220;104.306;2023-08-08T05:49:58;6.93;;;4.90;;
68140;SDS011;54941;52.220;104.306;2023-08-08T05:52:25;6.68;;;4.80;;
68140;SDS011;54941;52.220;104.306;2023-08-08T05:54:51;7.20;;;5.10;;
68140;SDS011;54941;52.220;104.306;2023-08-08T05:57:17;6.10;;;4.75;;
68140;SDS011;54941;52.220;104.306;2023-08-08T05:59:45;7.03;;;4.68;;
68140;SDS011;54941;52.220;104.306;2023-08-08T06:02:11;6.45;;;4.53;;
68140;SDS011;54941;52.220;104.306;2023-08-08T06:04:38;8.55;;;5.57;;
68140;SDS011;54941;52.220;104.306;2023-08-08T06:07:04;10.07;;;5.40;;
68140;SDS011;54941;52.220;104.306;2023-08-08T06:09:31;9.00;;;5.63;;
68140;SDS011;54941;52.220;104.306;2023-08-08T06:11:57;10.07;;;5.65;;
68140;SDS011;54941;52.220;104.306;2023-08-08T06:14:24;7.75;;;5.20;;
68140;SDS011;54941;52.220;104.306;2023-08-08T06:16:51;6.38;;;5.13;;
68140;SDS011;54941;52.220;104.306;2023-08-08T06:19:18;7.97;;;5.55;;
68140;SDS011;54941;52.220;104.306;2023-08-08T06:21:45;8.75;;;6.20;;
68140;SDS011;54941;52.220;104.306;2023-08-08T06:24:12;8.27;;;5.55;;
68140;SDS011;54941;52.220;104.306;2023-08-08T06:26:38;9.10;;;6.03;;
68140;SDS011;54941;52.220;104.306;2023-08-08T06:29:04;10.07;;;5.63;;
68140;SDS011;54941;52.220;104.306;2023-08-08T06:31:30;10.32;;;5.75;;
68140;SDS011;54941;52.220;104.306;2023-08-08T06:33:58;7.93;;;5.10;;
68140;SDS011;54941;52.220;104.306;2023-08-08T06:36:25;8.88;;;6.03;;
68140;SDS011;54941;52.220;104.306;2023-08-08T06:38:51;8.52;;;5.50;;
68140;SDS011;54941;52.220;104.306;2023-08-08T06:41:17;9.38;;;5.80;;
68140;SDS011;54941;52.220;104.306;2023-08-08T06:43:43;8.82;;;6.03;;
68140;SDS011;54941;52.220;104.306;2023-08-08T06:46:09;11.13;;;6.60;;
68140;SDS011;54941;52.220;104.306;2023-08-08T06:48:36;6.30;;;4.93;;
68140;SDS011;54941;52.220;104.306;2023-08-08T06:51:04;7.70;;;5.78;;
68140;SDS011;54941;52.220;104.306;2023-08-08T06:53:30;9.80;;;6.85;;
68140;SDS011;54941;52.220;104.306;2023-08-08T06:55:56;6.65;;;5.28;;
68140;SDS011;54941;52.220;104.306;2023-08-08T06:58:22;7.82;;;5.80;;
68140;SDS011;54941;52.220;104.306;2023-08-08T07:00:49;7.13;;;5.78;;
68140;SDS011;54941;52.220;104.306;2023-08-08T07:03:16;7.60;;;5.43;;
68140;SDS011;54941;52.220;104.306;2023-08-08T07:05:42;7.47;;;5.55;;
68140;SDS011;54941;52.220;104.306;2023-08-08T07:08:10;7.00;;;5.13;;
68140;SDS011;54941;52.220;104.306;2023-08-08T07:10:36;9.07;;;5.53;;
68140;SDS011;54941;52.220;104.306;2023-08-08T07:13:02;7.63;;;5.28;;
68140;SDS011;54941;52.220;104.306;2023-08-08T07:15:29;7.80;;;5.65;;
68140;SDS011;54941;52.220;104.306;2023-08-08T07:17:55;5.97;;;5.13;;
68140;SDS011;54941;52.220;104.306;2023-08-08T07:20:21;8.45;;;5.38;;
68140;SDS011;54941;52.220;104.306;2023-08-08T07:22:48;8.75;;;5.20;;
68140;SDS011;54941;52.220;104.306;2023-08-08T07:25:16;7.13;;;5.20;;
68140;SDS011;54941;52.220;104.306;2023-08-08T07:27:42;7.15;;;4.50;;
68140;SDS011;54941;52.220;104.306;2023-08-08T07:30:08;8.52;;;5.03;;
68140;SDS011;54941;52.220;104.306;2023-08-08T07:32:35;8.80;;;5.38;;
68140;SDS011;54941;52.220;104.306;2023-08-08T07:35:02;9.80;;;6.10;;
68140;SDS011;54941;52.220;104.306;2023-08-08T07:37:29;7.88;;;5.30;;
68140;SDS011;54941;52.220;104.306;2023-08-08T07:39:56;7.70;;;5.55;;
68140;SDS011;54941;52.220;104.306;2023-08-08T07:42:23;9.68;;;6.63;;
68140;SDS011;54941;52.220;104.306;2023-08-08T07:44:50;9.70;;;6.22;;
68140;SDS011;54941;52.220;104.306;2023-08-08T07:47:16;10.55;;;6.43;;
68140;SDS011;54941;52.220;104.306;2023-08-08T07:49:42;10.25;;;6.30;;
68140;SDS011;54941;52.220;104.306;2023-08-08T07:52:09;9.43;;;5.70;;
68140;SDS011;54941;52.220;104.306;2023-08-08T07:54:35;9.43;;;6.85;;
68140;SDS011;54941;52.220;104.306;2023-08-08T07:57:01;9.10;;;7.18;;
68140;SDS011;54941;52.220;104.306;2023-08-08T07:59:29;9.40;;;6.82;;
68140;SDS011;54941;52.220;104.306;2023-08-08T08:01:55;8.23;;;6.10;;
68140;SDS011;54941;52.220;104.306;2023-08-08T08:04:22;8.45;;;6.43;;
68140;SDS011;54941;52.220;104.306;2023-08-08T08:06:48;10.05;;;6.72;;
68140;SDS011;54941;52.220;104.306;2023-08-08T08:09:14;8.93;;;5.97;;
68140;SDS011;54941;52.220;104.306;2023-08-08T08:11:40;9.05;;;6.70;;
68140;SDS011;54941;52.220;104.306;2023-08-08T08:14:07;9.07;;;6.82;;
68140;SDS011;54941;52.220;104.306;2023-08-08T08:16:34;9.57;;;6.28;;
68140;SDS011;54941;52.220;104.306;2023-08-08T08:19:01;8.52;;;6.10;;
68140;SDS011;54941;52.220;104.306;2023-08-08T08:21:27;11.07;;;5.88;;
68140;SDS011;54941;52.220;104.306;2023-08-08T08:23:53;10.27;;;6.20;;
68140;SDS011;54941;52.220;104.306;2023-08-08T08:26:19;8.90;;;6.88;;
68140;SDS011;54941;52.220;104.306;2023-08-08T08:28:46;9.60;;;6.20;;
68140;SDS011;54941;52.220;104.306;2023-08-08T08:31:12;7.50;;;5.45;;
68140;SDS011;54941;52.220;104.306;2023-08-08T08:33:40;9.25;;;6.32;;
68140;SDS011;54941;52.220;104.306;2023-08-08T08:36:06;8.13;;;5.80;;
68140;SDS011;54941;52.220;104.306;2023-08-08T08:38:32;8.23;;;6.32;;
68140;SDS011;54941;52.220;104.306;2023-08-08T08:40:59;11.10;;;5.90;;
68140;SDS011;54941;52.220;104.306;2023-08-08T08:43:27;8.63;;;5.90;;
68140;SDS011;54941;52.220;104.306;2023-08-08T08:45:53;9.02;;;6.57;;
68140;SDS011;54941;52.220;104.306;2023-08-08T08:48:20;9.65;;;6.32;;
68140;SDS011;54941;52.220;104.306;2023-08-08T08:50:49;10.18;;;5.95;;
68140;SDS011;54941;52.220;104.306;2023-08-08T08:53:15;9.00;;;6.05;;
68140;SDS011;54941;52.220;104.306;2023-08-08T08:55:42;9.75;;;6.30;;
68140;SDS011;54941;52.220;104.306;2023-08-08T08:58:09;9.60;;;6.78;;
68140;SDS011;54941;52.220;104.306;2023-08-08T09:00:36;12.30;;;6.50;;
68140;SDS011;54941;52.220;104.306;2023-08-08T09:03:02;11.70;;;7.22;;
68140;SDS011;54941;52.220;104.306;2023-08-08T09:05:29;12.35;;;7.13;;
68140;SDS011;54941;52.220;104.306;2023-08-08T09:07:58;10.85;;;6.82;;
68140;SDS011;54941;52.220;104.306;2023-08-08T09:10:25;25.52;;;8.43;;
68140;SDS011;54941;52.220;104.306;2023-08-08T09:12:52;9.48;;;6.78;;
68140;SDS011;54941;52.220;104.306;2023-08-08T09:15:19;9.52;;;6.93;;
68140;SDS011;54941;52.220;104.306;2023-08-08T09:17:45;10.13;;;7.50;;
68140;SDS011;54941;52.220;104.306;2023-08-08T09:20:12;12.38;;;7.10;;
68140;SDS011;54941;52.220;104.306;2023-08-08T09:22:39;12.13;;;7.60;;
68140;SDS011;54941;52.220;104.306;2023-08-08T09:25:07;10.13;;;6.53;;
68140;SDS011;54941;52.220;104.306;2023-08-08T09:27:33;13.10;;;7.97;;
68140;SDS011;54941;52.220;104.306;2023-08-08T09:30:00;10.65;;;7.53;;
68140;SDS011;54941;52.220;104.306;2023-08-08T09:32:28;11.07;;;7.85;;
68140;SDS011;54941;52.220;104.306;2023-08-08T09:37:21;13.05;;;7.88;;
68140;SDS011;54941;52.220;104.306;2023-08-08T09:39:55;14.43;;;9.00;;
68140;SDS011;54941;52.220;104.306;2023-08-08T09:42:23;15.05;;;7.32;;
68140;SDS011;54941;52.220;104.306;2023-08-08T09:44:51;12.07;;;7.57;;
68140;SDS011;54941;52.220;104.306;2023-08-08T09:47:17;10.65;;;6.82;;
68140;SDS011;54941;52.220;104.306;2023-08-08T09:49:43;9.10;;;6.63;;
68140;SDS011;54941;52.220;104.306;2023-08-08T09:52:10;9.63;;;7.63;;
68140;SDS011;54941;52.220;104.306;2023-08-08T09:54:37;10.20;;;7.75;;
68140;SDS011;54941;52.220;104.306;2023-08-08T09:57:05;8.73;;;6.00;;
68140;SDS011;54941;52.220;104.306;2023-08-08T09:59:34;11.07;;;7.60;;
68140;SDS011;54941;52.220;104.306;2023-08-08T10:02:01;9.43;;;7.22;;
68140;SDS011;54941;52.220;104.306;2023-08-08T10:04:27;10.93;;;6.95;;
68140;SDS011;54941;52.220;104.306;2023-08-08T10:06:54;8.98;;;6.22;;
68140;SDS011;54941;52.220;104.306;2023-08-08T10:09:20;12.80;;;8.07;;
68140;SDS011;54941;52.220;104.306;2023-08-08T10:11:46;12.43;;;8.40;;
68140;SDS011;54941;52.220;104.306;2023-08-08T10:14:13;12.52;;;8.80;;
68140;SDS011;54941;52.220;104.306;2023-08-08T10:16:42;11.07;;;7.72;;
68140;SDS011;54941;52.220;104.306;2023-08-08T10:19:08;12.55;;;7.63;;
68140;SDS011;54941;52.220;104.306;2023-08-08T10:21:35;10.80;;;7.22;;
68140;SDS011;54941;52.220;104.306;2023-08-08T10:24:03;10.93;;;8.02;;
68140;SDS011;54941;52.220;104.306;2023-08-08T10:26:30;11.60;;;8.50;;
68140;SDS011;54941;52.220;104.306;2023-08-08T10:28:57;12.43;;;8.07;;
68140;SDS011;54941;52.220;104.306;2023-08-08T10:31:24;11.23;;;7.07;;
68140;SDS011;54941;52.220;104.306;2023-08-08T10:34:01;11.88;;;8.35;;
68140;SDS011;54941;52.220;104.306;2023-08-08T10:36:42;12.57;;;7.00;;
68140;SDS011;54941;52.220;104.306;2023-08-08T10:39:11;10.18;;;6.70;;
68140;SDS011;54941;52.220;104.306;2023-08-08T10:41:43;9.70;;;7.60;;
68140;SDS011;54941;52.220;104.306;2023-08-08T10:44:11;13.63;;;7.55;;
68140;SDS011;54941;52.220;104.306;2023-08-08T10:46:39;11.45;;;7.63;;
68140;SDS011;54941;52.220;104.306;2023-08-08T10:49:10;14.55;;;8.00;;
68140;SDS011;54941;52.220;104.306;2023-08-08T10:51:38;11.30;;;7.75;;
68140;SDS011;54941;52.220;104.306;2023-08-08T10:54:06;13.18;;;7.93;;
68140;SDS011;54941;52.220;104.306;2023-08-08T10:56:37;12.55;;;7.70;;
68140;SDS011;54941;52.220;104.306;2023-08-08T10:59:12;10.90;;;8.30;;
68140;SDS011;54941;52.220;104.306;2023-08-08T11:01:40;10.90;;;7.85;;
68140;SDS011;54941;52.220;104.306;2023-08-08T11:04:07;11.98;;;7.43;;
68140;SDS011;54941;52.220;104.306;2023-08-08T11:06:36;11.18;;;7.30;;
68140;SDS011;54941;52.220;104.306;2023-08-08T11:09:05;9.70;;;6.80;;
68140;SDS011;54941;52.220;104.306;2023-08-08T11:11:35;9.77;;;6.90;;
68140;SDS011;54941;52.220;104.306;2023-08-08T11:14:08;11.32;;;6.78;;
68140;SDS011;54941;52.220;104.306;2023-08-08T11:16:35;10.73;;;7.75;;
68140;SDS011;54941;52.220;104.306;2023-08-08T11:19:02;12.52;;;6.57;;
68140;SDS011;54941;52.220;104.306;2023-08-08T11:21:30;9.57;;;6.75;;
68140;SDS011;54941;52.220;104.306;2023-08-08T11:23:59;11.70;;;7.18;;
68140;SDS011;54941;52.220;104.306;2023-08-08T11:26:29;12.23;;;7.15;;
68140;SDS011;54941;52.220;104.306;2023-08-08T11:28:55;13.38;;;6.90;;
68140;SDS011;54941;52.220;104.306;2023-08-08T11:31:21;10.50;;;6.90;;
68140;SDS011;54941;52.220;104.306;2023-08-08T11:33:48;12.35;;;7.07;;
68140;SDS011;54941;52.220;104.306;2023-08-08T11:36:15;12.52;;;6.68;;
68140;SDS011;54941;52.220;104.306;2023-08-08T11:38:43;12.48;;;8.52;;
68140;SDS011;54941;52.220;104.306;2023-08-08T11:41:10;12.20;;;7.55;;
68140;SDS011;54941;52.220;104.306;2023-08-08T11:43:36;12.20;;;7.25;;
68140;SDS011;54941;52.220;104.306;2023-08-08T11:46:03;11.15;;;7.13;;
68140;SDS011;54941;52.220;104.306;2023-08-08T11:48:32;13.48;;;7.70;;
68140;SDS011;54941;52.220;104.306;2023-08-08T11:50:58;10.65;;;7.47;;
68140;SDS011;54941;52.220;104.306;2023-08-08T11:53:25;13.32;;;7.95;;
68140;SDS011;54941;52.220;104.306;2023-08-08T11:55:52;12.30;;;7.22;;
68140;SDS011;54941;52.220;104.306;2023-08-08T11:58:19;9.77;;;6.60;;
68140;SDS011;54941;52.220;104.306;2023-08-08T12:00:45;12.85;;;8.00;;
68140;SDS011;54941;52.220;104.306;2023-08-08T12:03:12;15.13;;;7.22;;
68140;SDS011;54941;52.220;104.306;2023-08-08T12:05:38;11.60;;;7.55;;
68140;SDS011;54941;52.220;104.306;2023-08-08T12:08:05;11.77;;;7.93;;
68140;SDS011;54941;52.220;104.306;2023-08-08T12:10:31;13.07;;;7.38;;
68140;SDS011;54941;52.220;104.306;2023-08-08T12:12:59;11.57;;;7.05;;
68140;SDS011;54941;52.220;104.306;2023-08-08T12:15:28;15.02;;;8.38;;
68140;SDS011;54941;52.220;104.306;2023-08-08T12:17:54;14.38;;;8.57;;
68140;SDS011;54941;52.220;104.306;2023-08-08T12:20:21;12.98;;;8.32;;
68140;SDS011;54941;52.220;104.306;2023-08-08T12:22:47;14.32;;;8.57;;
68140;SDS011;54941;52.220;104.306;2023-08-08T12:25:13;18.70;;;10.48;;
68140;SDS011;54941;52.220;104.306;2023-08-08T12:27:39;17.52;;;9.30;;
68140;SDS011;54941;52.220;104.306;2023-08-08T12:30:08;16.23;;;11.02;;
68140;SDS011;54941;52.220;104.306;2023-08-08T12:32:34;16.25;;;10.82;;
68140;SDS011;54941;52.220;104.306;2023-08-08T12:35:01;17.95;;;10.85;;
68140;SDS011;54941;52.220;104.306;2023-08-08T12:39:55;18.50;;;10.38;;
68140;SDS011;54941;52.220;104.306;2023-08-08T12:42:22;19.40;;;10.85;;
68140;SDS011;54941;52.220;104.306;2023-08-08T12:44:48;14.13;;;8.95;;
68140;SDS011;54941;52.220;104.306;2023-08-08T12:47:16;15.88;;;9.10;;
68140;SDS011;54941;52.220;104.306;2023-08-08T12:49:43;17.92;;;9.43;;
68140;SDS011;54941;52.220;104.306;2023-08-08T12:52:12;13.80;;;8.65;;
68140;SDS011;54941;52.220;104.306;2023-08-08T12:54:38;18.08;;;11.45;;
68140;SDS011;54941;52.220;104.306;2023-08-08T12:57:05;19.27;;;12.20;;
68140;SDS011;54941;52.220;104.306;2023-08-08T12:59:31;17.95;;;11.02;;
68140;SDS011;54941;52.220;104.306;2023-08-08T13:01:58;17.45;;;9.52;;
68140;SDS011;54941;52.220;104.306;2023-08-08T13:04:25;23.88;;;11.93;;
68140;SDS011;54941;52.220;104.306;2023-08-08T13:06:52;19.70;;;12.02;;
68140;SDS011;54941;52.220;104.306;2023-08-08T13:09:18;19.92;;;11.68;;
68140;SDS011;54941;52.220;104.306;2023-08-08T13:11:44;16.75;;;9.85;;
68140;SDS011;54941;52.220;104.306;2023-08-08T13:14:11;19.45;;;11.38;;
68140;SDS011;54941;52.220;104.306;2023-08-08T13:16:37;17.20;;;10.32;;
68140;SDS011;54941;52.220;104.306;2023-08-08T13:19:03;20.17;;;11.80;;
68140;SDS011;54941;52.220;104.306;2023-08-08T13:21:31;18.23;;;11.82;;
68140;SDS011;54941;52.220;104.306;2023-08-08T13:23:57;21.13;;;11.38;;
68140;SDS011;54941;52.220;104.306;2023-08-08T13:26:24;22.30;;;12.73;;
68140;SDS011;54941;52.220;104.306;2023-08-08T13:28:50;21.75;;;12.50;;
68140;SDS011;54941;52.220;104.306;2023-08-08T13:31:16;21.88;;;12.02;;
68140;SDS011;54941;52.220;104.306;2023-08-08T13:33:43;20.30;;;12.48;;
68140;SDS011;54941;52.220;104.306;2023-08-08T13:36:09;20.48;;;12.85;;
68140;SDS011;54941;52.220;104.306;2023-08-08T13:38:37;17.27;;;10.40;;
68140;SDS011;54941;52.220;104.306;2023-08-08T13:41:03;19.10;;;10.80;;
68140;SDS011;54941;52.220;104.306;2023-08-08T13:43:29;18.63;;;11.10;;
68140;SDS011;54941;52.220;104.306;2023-08-08T13:45:56;18.77;;;10.52;;
68140;SDS011;54941;52.220;104.306;2023-08-08T13:48:22;19.45;;;10.80;;
68140;SDS011;54941;52.220;104.306;2023-08-08T13:50:49;19.05;;;11.82;;
68140;SDS011;54941;52.220;104.306;2023-08-08T13:53:19;21.08;;;11.07;;
68140;SDS011;54941;52.220;104.306;2023-08-08T13:55:51;17.25;;;10.70;;
68140;SDS011;54941;52.220;104.306;2023-08-08T13:58:20;15.90;;;10.15;;
68140;SDS011;54941;52.220;104.306;2023-08-08T14:00:46;18.23;;;10.75;;
68140;SDS011;54941;52.220;104.306;2023-08-08T14:03:12;15.55;;;9.73;;
68140;SDS011;54941;52.220;104.306;2023-08-08T14:05:39;14.93;;;10.25;;
68140;SDS011;54941;52.220;104.306;2023-08-08T14:08:05;16.88;;;9.52;;
68140;SDS011;54941;52.220;104.306;2023-08-08T14:10:31;15.60;;;10.45;;
68140;SDS011;54941;52.220;104.306;2023-08-08T14:13:00;17.33;;;10.80;;
68140;SDS011;54941;52.220;104.306;2023-08-08T14:15:26;19.58;;;10.75;;
68140;SDS011;54941;52.220;104.306;2023-08-08T14:17:52;17.92;;;10.70;;
68140;SDS011;54941;52.220;104.306;2023-08-08T14:20:19;17.92;;;12.93;;
68140;SDS011;54941;52.220;104.306;2023-08-08T14:22:45;19.90;;;12.20;;
68140;SDS011;54941;52.220;104.306;2023-08-08T14:25:12;20.42;;;12.75;;